AirNav   Air Wisconsin pilot careers
 
 1506 users online  

1H4 Greenville-Rainbow Airport
Greenville, New York, USA

GOING TO GREENVILLE?


FAA INFORMATION EFFECTIVE 24 MAY 2018

Location

FAA Identifier: 1H4
Lat/Long: 42-25-00.2940N / 074-00-58.4760W
42-25.004900N / 074-00.974600W
42.4167483 / -74.0162433
(estimated)
Elevation: 840 ft. / 256 m (estimated)
Variation: 14W (1985)
From city: 1 mile E of GREENVILLE, NY
Time zone: UTC -4 (UTC -5 during Standard Time)
Zip code: 12083

Airport Operations

Airport use: Open to the public
Activation date: 06/1948
Control tower: no
ARTCC: BOSTON CENTER
FSS: BURLINGTON FLIGHT SERVICE STATION
NOTAMs facility: BTV (NOTAM-D service available)
Attendance: MAY-NOV DAYLIGHT HOURS
Wind indicator: yes
Segmented circle: no

Airport Communications

CTAF/UNICOM: 122.8
WX AWOS-3 at 1B1 (16 nm SE): 133.525 (518-828-2577)

Nearby radio navigation aids

VOR radial/distance  VOR name  Freq  Var
ALBr218/22.0ALBANY VORTAC115.3013W

 
NDB name  Hdg/Dist  Freq  Var  ID
PHILMONT320/16.327213WPFH .--. ..-. ....
HUNTER202/26.535614WHEU .... . ..-
GREAT BARRINGTON311/30.639514WGBR --. -... .-.
JOHNSTOWN172/37.652314WJJH .--- .--- ....

Airport Services

Parking: hangars and tiedowns
Airframe service: NONE
Powerplant service: NONE

Runway Information

Runway 17/35

Dimensions: 1801 x 75 ft. / 549 x 23 m
Surface: turf, in good condition
Runway edge markings: RY EDGES AND THLD MARKED BY WHITE MARKERS (1 FT SQ.)
RUNWAY 17  RUNWAY 35
Latitude: 42-25.330500N42-25.034000N
Longitude: 074-00.414000W074-00.413000W
Elevation: 840.0 ft.800.0 ft.
Gradient: 2.2% UP
Traffic pattern: leftleft
Runway heading: 194 magnetic, 180 true014 magnetic, 360 true
Displaced threshold: 112 ft.no
Markings: , in fair condition, in fair condition
Obstructions: 53 ft. trees, 32 ft. from runway, 92 ft. right of centerline
0:0 CONTROLLING OBSTRUCTION SLOPE TO DSPLCD THLD DUE TO +53 FT TREES 81 FT RIGHT.
43 ft. trees, 2 ft. from runway, 62 ft. left of centerline

Airport Ownership and Management from official FAA records

Ownership: Privately-owned
Owner: WALTER J BIRMANN
3822 CR 26
GREENVILLE, NY 12083
Phone 518-966-5343
Manager: WALTER J BIRMANN
3822 COUNTY ROUTE 26
GREENVILLE, NY 12083
Phone 518-966-5343

Airport Operational Statistics

Aircraft based on the field: 1
Single engine airplanes: 1
    
Aircraft operations: avg 30/month *
35% transient general aviation
35% local general aviation
21% commercial
8% military
* for 12-month period ending 09 September 2015

Additional Remarks

RY 17/35 MAY BE CLSD AFTER RAINS DUE TO WETNESS.
RY 17/35 SOFT & WET DURING MAR-JUN.
APT CLSD DEC 1 THRU APR 1.
+30 FT POWER LINE PARALLEL TO AND 150 FT WEST OF RY CNTRLN.

Instrument Procedures

There are no published instrument procedures at 1H4.

Some nearby airports with instrument procedures:

4B0 - South Albany Airport (12 nm NE)
1B1 - Columbia County Airport (16 nm SE)
KALB - Albany International Airport (22 nm NE)
20N - Kingston-Ulster Airport (26 nm S)
KSCH - Schenectady County Airport (26 nm N)
 
Loc | Ops | Rwys | IFR | FBO | Links
Com | Nav | Svcs | Stats | Notes

AirNav Hotels Sweepstakes
 
Area around 1H4 (Greenville-Rainbow Airport)
 
Road maps at: MapQuest Bing Google
 
Aerial photo
WARNING: Photo may not be current or correct
Aerial photo of 1H4 (Greenville-Rainbow Airport)
Do you have a better or more recent aerial photo of Greenville-Rainbow Airport that you would like to share? If so, please send us your photo.

 
Sectional chart

 
Airport distance calculator
Flying to Greenville-Rainbow Airport? Find the distance to fly.

From to 1H4

Sunrise and sunset
Times for 18-Jun-2018
 Local
(UTC-4)
 Zulu
(UTC)
Morning civil twilight04:4508:45
Sunrise05:2009:20
Sunset20:3500:35
Evening civil twilight21:1001:10

Current date and time
Zulu (UTC)  18-Jun-2018 21:08:25
Local (UTC-4)  18-Jun-2018 17:08:25
 
METAR
KALB 
22nm NE 
182051Z 25010KT 10SM FEW033 FEW065 SCT080 SCT150 OVC250 28/21 A2976 RMK AO2 PK WND 33033/2029 LTG DSNT NE AND E RAB30E43 SLP075 P0001 60003 T02830211 56016
KSCH 
26nm N 
181946Z 28007KT 07SM SCT049 BKN060 OVC100 26/22 A2977
KPSF 
32nm E 
182054Z AUTO 23011KT 10SM FEW065 SCT090 31/22 A2979 RMK AO2 LTG DSNT N AND NE SLP058 T03060217 56026
KNY0 
38nm N 
182034Z AUTO 27007KT 10SM CLR 26/24 A2980 RMK AO2
KAQW 
41nm NE 
182052Z AUTO VRB05KT -TSRA SCT026 BKN050 24/22 A2978 RMK AO2 PK WND 21029/2039 LTG DSNT N-E RAB32 TSB25 SLP083 P0019 60019 T02440222 55014 $
KDDH 
44nm NE 
182104Z AUTO 05004KT 9SM FEW042 BKN075 25/23 A2979 RMK AO2 LTG DSNT NE-S RAE2055 P0000 T02500228
TAF
KALB 
22nm NE 
182003Z 1820/1918 28010KT P6SM VCSH BKN050 TEMPO 1822/1902 28012G25KT 3SM TSRA OVC040CB FM190200 25008KT 6SM -SHRA VCTS OVC040CB FM190400 28006KT P6SM OVC040 FM190600 30006KT P6SM OVC025 FM191300 33012KT P6SM SKC
NOTAMs
Click for the latest NOTAMs
NOTAMs are issued by the DoD/FAA and will open in a separate window not controlled by AirNav.

 

 
 

Would you like to see your business listed on this page?

 If your business provides an interesting product or service to pilots, flight crews, aircraft, or users of the Greenville-Rainbow Airport, you should consider listing it here.  To start the listing process, click on the button below
 
Add a business
 

Other Pages about Greenville-Rainbow Airport

Update a link
 
Copyright © AirNav, LLC. All rights reserved. Privacy Policy  Contact